createdAt,value
2022-11-05T10:07:19.587Z,56.89
2022-11-05T10:09:45.926Z,57.72
2022-11-05T10:12:12.407Z,58.84
2022-11-05T10:14:38.746Z,61.76
2022-11-05T10:17:05.263Z,62.40
2022-11-05T10:19:34.059Z,62.29
2022-11-05T10:22:06.482Z,64.00
2022-11-05T10:24:33.394Z,64.59
2022-11-05T10:26:59.728Z,64.39
2022-11-05T10:29:26.153Z,64.61
2022-11-05T10:31:52.507Z,64.50
2022-11-05T10:34:18.896Z,64.93
2022-11-05T10:36:45.277Z,65.04
2022-11-05T10:39:11.734Z,65.52
2022-11-05T10:41:38.235Z,63.86
2022-11-05T10:44:04.664Z,63.92
2022-11-05T10:46:31.074Z,65.15
2022-11-05T10:48:57.460Z,65.08
2022-11-05T10:51:24.044Z,64.26
2022-11-05T10:53:57.249Z,64.42
2022-11-05T10:56:27.831Z,62.64
2022-11-05T10:58:54.203Z,61.61
2022-11-05T11:01:20.991Z,62.26
2022-11-05T11:03:47.509Z,62.91
2022-11-05T11:06:13.905Z,62.69
2022-11-05T11:08:40.289Z,62.50
2022-11-05T11:11:06.786Z,63.27
2022-11-05T11:13:33.138Z,60.67
2022-11-05T11:15:59.512Z,61.83
2022-11-05T11:18:25.974Z,62.41
2022-11-05T11:20:52.357Z,61.45
2022-11-05T11:23:18.782Z,61.46
2022-11-05T11:25:45.131Z,62.08
2022-11-05T11:28:12.866Z,60.71
2022-11-05T11:30:39.244Z,62.05
2022-11-05T11:33:05.598Z,62.58
2022-11-05T11:35:32.034Z,61.65
2022-11-05T11:38:00.191Z,60.33
2022-11-05T11:40:26.613Z,60.59
2022-11-05T11:42:53.007Z,60.43
2022-11-05T11:45:19.345Z,60.54
2022-11-05T11:47:45.966Z,61.50
2022-11-05T11:50:12.425Z,61.54
2022-11-05T11:52:38.849Z,61.02
2022-11-05T11:55:05.214Z,63.21
2022-11-05T11:57:31.612Z,64.41
2022-11-05T12:00:13.446Z,64.92
2022-11-05T12:02:39.955Z,67.45
2022-11-05T12:05:06.481Z,69.54
2022-11-05T12:07:33.058Z,68.79
2022-11-05T12:09:59.450Z,67.78
2022-11-05T12:12:25.812Z,67.51
2022-11-05T12:14:52.283Z,67.67
2022-11-05T12:17:18.786Z,68.15
2022-11-05T12:19:45.179Z,67.88
2022-11-05T12:22:11.651Z,67.64
2022-11-05T12:24:38.044Z,66.89
2022-11-05T12:27:04.478Z,66.18
2022-11-05T12:29:35.578Z,66.16
2022-11-05T12:32:02.378Z,66.06
2022-11-05T12:34:28.765Z,66.42
2022-11-05T12:36:55.166Z,67.15
2022-11-05T12:39:21.573Z,66.80
2022-11-05T12:41:48.007Z,65.39
2022-11-05T12:44:15.483Z,66.66
2022-11-05T12:46:42.163Z,66.32
2022-11-05T12:49:08.538Z,65.75
2022-11-05T12:51:34.926Z,64.88
2022-11-05T12:54:01.332Z,64.61
2022-11-05T12:56:27.963Z,64.14
2022-11-05T12:58:54.460Z,62.85
2022-11-05T13:01:20.995Z,62.98
2022-11-05T13:03:47.539Z,62.28
2022-11-05T13:06:13.938Z,64.23
2022-11-05T13:08:40.376Z,64.50
2022-11-05T13:11:06.976Z,64.46
2022-11-05T13:13:33.390Z,65.26
2022-11-05T13:15:59.748Z,65.28
2022-11-05T13:18:26.640Z,65.70
2022-11-05T13:20:53.101Z,64.67
2022-11-05T13:23:19.518Z,64.53
2022-11-05T13:25:45.878Z,66.30
2022-11-05T13:28:12.269Z,64.25
2022-11-05T13:30:38.692Z,64.94
2022-11-05T13:33:05.064Z,65.53
2022-11-05T13:35:31.447Z,64.85
2022-11-05T13:37:57.796Z,64.98
2022-11-05T13:40:24.192Z,64.39
2022-11-05T13:42:50.558Z,63.55
2022-11-05T13:45:16.975Z,62.84
2022-11-05T13:47:43.445Z,63.31
2022-11-05T13:50:09.847Z,64.21
2022-11-05T13:52:36.294Z,62.63
2022-11-05T13:55:02.724Z,62.68
2022-11-05T13:57:31.529Z,61.98
2022-11-05T13:59:58.104Z,62.31
2022-11-05T14:02:24.704Z,62.49
2022-11-05T14:04:51.220Z,59.96
2022-11-05T14:07:17.605Z,63.08
2022-11-05T14:09:44.081Z,61.48
2022-11-05T14:12:10.523Z,60.80
2022-11-05T14:14:36.879Z,60.87
2022-11-05T14:17:03.468Z,59.18
2022-11-05T14:19:29.878Z,61.47
2022-11-05T14:21:56.319Z,61.88
2022-11-05T14:24:22.734Z,58.02
2022-11-05T14:26:49.111Z,60.26
2022-11-05T14:29:15.482Z,55.82
2022-11-05T14:32:07.391Z,56.04
2022-11-05T14:34:28.211Z,57.10
2022-11-05T14:36:54.697Z,56.35
2022-11-05T14:39:21.127Z,56.65
2022-11-05T14:41:47.520Z,54.02
2022-11-05T14:44:21.443Z,55.15
2022-11-05T14:46:50.227Z,55.79
2022-11-05T14:49:16.607Z,55.08
2022-11-05T14:51:43.026Z,54.00
2022-11-05T14:54:09.447Z,53.05
2022-11-05T14:56:43.432Z,55.24
2022-11-05T14:59:09.805Z,54.83
2022-11-05T15:01:36.296Z,53.28
2022-11-05T15:04:02.868Z,52.83
2022-11-05T15:06:29.383Z,52.64
2022-11-05T15:08:55.762Z,50.49
2022-11-05T15:11:22.150Z,52.55
2022-11-05T15:13:49.873Z,52.60
2022-11-05T15:16:16.247Z,52.59
2022-11-05T15:18:42.631Z,52.94
2022-11-05T15:21:09.009Z,53.39
2022-11-05T15:23:35.642Z,52.98
2022-11-05T15:26:02.040Z,55.53
2022-11-05T15:28:28.420Z,55.70
2022-11-05T15:30:54.830Z,57.07
2022-11-05T15:33:21.168Z,56.40
2022-11-05T15:35:47.564Z,57.79
2022-11-05T15:38:16.656Z,58.14
2022-11-05T15:40:43.028Z,56.94
2022-11-05T15:43:09.839Z,56.55
2022-11-05T15:45:36.525Z,57.34
2022-11-05T15:48:02.962Z,59.78
2022-11-05T15:50:32.437Z,60.61
2022-11-05T15:53:20.754Z,61.40
2022-11-05T15:55:45.216Z,61.24
2022-11-05T15:58:11.604Z,59.50
2022-11-05T16:00:38.014Z,60.15
2022-11-05T16:03:04.390Z,60.77
2022-11-05T16:05:30.879Z,61.58
2022-11-05T16:07:57.267Z,62.05
2022-11-05T16:10:23.706Z,61.83
2022-11-05T16:12:50.190Z,61.61
2022-11-05T16:15:16.747Z,61.62
2022-11-05T16:17:43.096Z,61.98
2022-11-05T16:20:09.488Z,62.26
2022-11-05T16:22:35.888Z,61.71
2022-11-05T16:25:02.409Z,61.92
2022-11-05T16:27:28.951Z,61.45
2022-11-05T16:29:55.507Z,61.88
2022-11-05T16:32:26.841Z,61.83
2022-11-05T16:34:56.479Z,62.09
2022-11-05T16:37:23.025Z,61.61
2022-11-05T16:39:49.461Z,61.82
2022-11-05T16:42:15.879Z,62.01
2022-11-05T16:44:42.427Z,61.92
2022-11-05T16:47:11.963Z,61.94
2022-11-05T16:49:41.337Z,62.17
2022-11-05T16:52:07.824Z,61.33
2022-11-05T16:54:34.313Z,61.59
2022-11-05T16:57:02.893Z,61.24
2022-11-05T16:59:29.571Z,61.67
2022-11-05T17:01:56.295Z,60.43
2022-11-05T17:04:23.051Z,62.12
2022-11-05T17:06:52.303Z,62.47
2022-11-05T17:09:19.574Z,61.59
2022-11-05T17:11:46.513Z,61.48
2022-11-05T17:14:13.007Z,61.17
2022-11-05T17:16:43.731Z,60.40
2022-11-05T17:19:10.313Z,60.47
2022-11-05T17:21:36.798Z,61.18
2022-11-05T17:24:03.419Z,60.97
2022-11-05T17:26:29.947Z,61.82
2022-11-05T17:28:56.565Z,62.29
2022-11-05T17:31:23.105Z,61.93
2022-11-05T17:33:49.642Z,62.28
2022-11-05T17:36:17.510Z,61.71
2022-11-05T17:38:43.960Z,62.49
2022-11-05T17:41:10.521Z,62.33
2022-11-05T17:43:37.227Z,61.98
2022-11-05T17:46:04.763Z,61.66
2022-11-05T17:48:31.394Z,61.06
2022-11-05T17:51:00.767Z,61.49
2022-11-05T17:53:27.465Z,61.72
2022-11-05T17:55:54.077Z,62.10
2022-11-05T17:58:20.635Z,61.76
2022-11-05T18:00:57.571Z,61.95
2022-11-05T18:03:24.079Z,61.73
2022-11-05T18:05:53.286Z,61.46
2022-11-05T18:08:19.801Z,61.25
2022-11-05T18:10:46.305Z,61.45
2022-11-05T18:13:13.070Z,61.37
2022-11-05T18:15:41.824Z,61.92
2022-11-05T18:18:10.344Z,61.42
2022-11-05T18:20:36.829Z,61.56
2022-11-05T18:23:03.294Z,60.66
2022-11-05T18:25:29.958Z,61.59
2022-11-05T18:27:56.438Z,61.30
2022-11-05T18:30:22.935Z,60.58
2022-11-05T18:32:49.417Z,61.13
2022-11-05T18:35:15.868Z,60.40
2022-11-05T18:37:42.359Z,60.43
2022-11-05T18:40:08.790Z,60.81
2022-11-05T18:42:35.281Z,61.19
2022-11-05T18:45:01.816Z,60.99
2022-11-05T18:47:28.268Z,60.96
2022-11-05T18:49:54.829Z,61.55
2022-11-05T18:52:21.324Z,61.46
2022-11-05T18:54:48.374Z,60.80
2022-11-05T18:57:15.031Z,61.76
2022-11-05T18:59:41.482Z,61.22
2022-11-05T19:02:08.695Z,60.45
2022-11-05T19:04:35.367Z,58.34
2022-11-05T19:07:05.213Z,60.52
2022-11-05T19:09:32.435Z,59.95
2022-11-05T19:11:58.997Z,60.60
2022-11-05T19:14:25.609Z,60.67
2022-11-05T19:16:52.112Z,60.06
2022-11-05T19:19:20.758Z,59.46
2022-11-05T19:21:53.401Z,59.28
2022-11-05T19:24:20.176Z,59.13
2022-11-05T19:26:46.892Z,59.52
2022-11-05T19:29:13.433Z,60.32
2022-11-05T19:31:39.943Z,60.32
2022-11-05T19:34:08.202Z,59.82
2022-11-05T19:36:34.809Z,60.67
2022-11-05T19:39:01.303Z,60.67
2022-11-05T19:41:34.035Z,60.75
2022-11-05T19:44:02.590Z,60.78
2022-11-05T19:46:29.188Z,61.03
2022-11-05T19:48:55.740Z,60.26
2022-11-05T19:51:22.241Z,60.40
2022-11-05T19:53:48.805Z,60.39
2022-11-05T19:56:16.922Z,60.49
2022-11-05T19:58:43.409Z,60.89
2022-11-05T20:01:10.155Z,60.85
2022-11-05T20:03:36.827Z,60.93
2022-11-05T20:06:03.390Z,60.81
2022-11-05T20:08:30.093Z,61.42
2022-11-05T20:10:56.674Z,61.00
2022-11-05T20:13:23.193Z,61.09
2022-11-05T20:15:49.721Z,60.94
2022-11-05T20:18:16.270Z,60.47
2022-11-05T20:20:42.775Z,60.49
2022-11-05T20:23:09.977Z,60.34
2022-11-05T20:25:36.712Z,60.72
2022-11-05T20:28:03.281Z,61.11
2022-11-05T20:30:29.976Z,61.52
2022-11-05T20:32:56.549Z,61.25
2022-11-05T20:35:24.380Z,61.48
2022-11-05T20:37:53.982Z,61.37
2022-11-05T20:40:20.868Z,60.95
2022-11-05T20:42:49.425Z,61.10
2022-11-05T20:45:15.984Z,60.44
2022-11-05T20:47:42.967Z,60.62
2022-11-05T20:50:09.543Z,60.24
2022-11-05T20:52:40.125Z,59.75
2022-11-05T20:55:06.638Z,60.12
2022-11-05T20:57:33.149Z,59.41
2022-11-05T20:59:59.617Z,59.48
2022-11-05T21:02:26.275Z,59.90
2022-11-05T21:04:52.801Z,60.54
2022-11-05T21:07:19.413Z,60.40
2022-11-05T21:09:55.084Z,60.42
2022-11-05T21:12:21.779Z,60.43
2022-11-05T21:14:51.409Z,60.29
2022-11-05T21:17:18.102Z,60.83
2022-11-05T21:19:45.847Z,60.47
2022-11-05T21:22:14.453Z,60.54
2022-11-05T21:24:41.040Z,60.40
2022-11-05T21:27:07.579Z,60.49
2022-11-05T21:29:34.134Z,60.96
2022-11-05T21:32:00.524Z,60.64
2022-11-05T21:34:27.049Z,60.79
2022-11-05T21:36:53.522Z,60.87
2022-11-05T21:39:20.063Z,60.62
2022-11-05T21:41:46.551Z,60.21
2022-11-05T21:44:16.124Z,60.44
2022-11-05T21:46:44.829Z,60.23
2022-11-05T21:49:12.648Z,61.06
2022-11-05T21:51:41.126Z,61.41
2022-11-05T21:54:07.678Z,60.79
2022-11-05T21:56:34.121Z,60.50
2022-11-05T21:59:00.539Z,60.11
2022-11-05T22:01:30.673Z,60.90
2022-11-05T22:04:02.648Z,60.70
2022-11-05T22:06:30.989Z,59.65
2022-11-05T22:08:57.501Z,59.84
2022-11-05T22:11:27.624Z,60.28
2022-11-05T22:13:54.133Z,60.83
2022-11-05T22:16:21.178Z,61.46
2022-11-05T22:18:47.720Z,60.39
2022-11-05T22:21:19.323Z,61.51
2022-11-05T22:23:46.838Z,61.99
2022-11-05T22:26:13.326Z,61.52
2022-11-05T22:28:42.020Z,60.99
2022-11-05T22:31:08.546Z,60.78
2022-11-05T22:33:34.987Z,60.33
2022-11-05T22:36:01.482Z,60.08
2022-11-05T22:38:28.135Z,60.02
2022-11-05T22:40:54.746Z,61.10
2022-11-05T22:43:24.022Z,60.55
2022-11-05T22:45:50.532Z,60.33
2022-11-05T22:48:17.093Z,60.27
2022-11-05T22:50:43.580Z,59.93
2022-11-05T22:53:12.099Z,60.09
2022-11-05T22:55:38.595Z,60.93
2022-11-05T22:58:05.188Z,61.54
2022-11-05T23:00:31.672Z,61.05
2022-11-05T23:02:58.244Z,60.19
2022-11-05T23:05:24.908Z,60.55
2022-11-05T23:07:51.448Z,61.58
2022-11-05T23:10:19.560Z,61.53
2022-11-05T23:12:50.495Z,61.23
2022-11-05T23:15:17.155Z,60.62
2022-11-05T23:17:43.548Z,59.78
2022-11-05T23:20:10.037Z,60.19
2022-11-05T23:22:36.592Z,60.63
2022-11-05T23:25:03.099Z,61.08
2022-11-05T23:27:29.551Z,60.25
2022-11-05T23:29:56.054Z,60.58
2022-11-05T23:32:22.580Z,61.20
2022-11-05T23:34:49.078Z,61.26
2022-11-05T23:37:15.577Z,61.42
2022-11-05T23:39:43.013Z,61.44
2022-11-05T23:42:09.713Z,62.33
2022-11-05T23:44:36.158Z,62.98
2022-11-05T23:47:02.670Z,63.01
2022-11-05T23:49:29.170Z,62.97
2022-11-05T23:51:55.626Z,63.18
2022-11-05T23:54:22.155Z,63.52
2022-11-05T23:56:48.623Z,63.80
2022-11-05T23:59:16.151Z,64.90
